createdAt,value
2023-06-07T00:01:13.805Z,11.19
2023-06-07T00:03:41.016Z,11.10
2023-06-07T00:06:10.436Z,11.06
2023-06-07T00:08:37.948Z,11.01
2023-06-07T00:11:05.079Z,10.97
2023-06-07T00:13:32.863Z,10.92
2023-06-07T00:15:59.737Z,10.84
2023-06-07T00:18:29.601Z,10.82
2023-06-07T00:20:58.856Z,10.78
2023-06-07T00:23:29.960Z,10.75
2023-06-07T00:25:58.278Z,10.67
2023-06-07T00:28:25.789Z,10.63
2023-06-07T00:30:53.803Z,10.58
2023-06-07T00:33:22.360Z,10.53
2023-06-07T00:35:49.457Z,10.50
2023-06-07T00:38:16.432Z,10.48
2023-06-07T00:40:43.397Z,10.45
2023-06-07T00:43:10.346Z,10.42
2023-06-07T00:45:37.329Z,10.35
2023-06-07T00:48:04.767Z,10.31
2023-06-07T00:50:32.078Z,10.27
2023-06-07T00:52:59.377Z,10.27
2023-06-07T00:55:26.950Z,10.25
2023-06-07T00:57:55.235Z,10.22
2023-06-07T01:00:22.760Z,10.15
2023-06-07T01:02:50.949Z,10.10
2023-06-07T01:05:18.863Z,10.04
2023-06-07T01:07:50.189Z,10.00
2023-06-07T01:10:18.040Z,9.98
2023-06-07T01:12:45.933Z,9.96
2023-06-07T01:15:14.029Z,9.91
2023-06-07T01:17:45.976Z,9.90
2023-06-07T01:20:17.281Z,9.86
2023-06-07T01:22:46.673Z,9.82
2023-06-07T01:25:14.127Z,9.79
2023-06-07T01:27:45.514Z,9.87
2023-06-07T01:30:14.272Z,9.88
2023-06-07T01:32:44.020Z,9.88
2023-06-07T01:35:12.714Z,9.91
2023-06-07T01:37:40.997Z,9.90
2023-06-07T01:40:10.011Z,9.87
2023-06-07T01:42:39.004Z,9.83
2023-06-07T01:45:09.305Z,9.72
2023-06-07T01:47:36.607Z,9.78
2023-06-07T01:50:04.028Z,9.80
2023-06-07T01:52:31.242Z,9.82
2023-06-07T01:54:58.844Z,9.84
2023-06-07T01:57:53.802Z,9.87
2023-06-07T02:00:33.786Z,9.90
2023-06-07T02:03:07.949Z,9.90
2023-06-07T02:05:50.044Z,9.87
2023-06-07T02:08:34.143Z,9.93
2023-06-07T02:11:03.743Z,9.94
2023-06-07T02:13:43.453Z,9.96
2023-06-07T02:16:12.097Z,9.99
2023-06-07T02:18:42.267Z,10.00
2023-06-07T02:21:10.342Z,10.03
2023-06-07T02:23:38.312Z,10.05
2023-06-07T02:26:05.854Z,10.08
2023-06-07T02:28:32.814Z,10.11
2023-06-07T02:30:59.860Z,10.12
2023-06-07T02:33:27.055Z,10.13
2023-06-07T02:35:54.050Z,10.15
2023-06-07T02:38:21.256Z,10.21
2023-06-07T02:40:48.481Z,10.25
2023-06-07T02:43:15.638Z,10.29
2023-06-07T02:45:42.871Z,10.33
2023-06-07T02:48:09.896Z,10.36
2023-06-07T02:50:36.812Z,10.42
2023-06-07T02:53:07.420Z,10.47
2023-06-07T02:55:35.080Z,10.51
2023-06-07T02:58:02.045Z,10.56
2023-06-07T03:00:29.113Z,10.62
2023-06-07T03:02:56.247Z,10.70
2023-06-07T03:05:23.289Z,10.75
2023-06-07T03:07:51.801Z,10.80
2023-06-07T03:10:18.921Z,10.85
2023-06-07T03:12:47.222Z,10.91
2023-06-07T03:15:14.204Z,11.00
2023-06-07T03:17:43.210Z,11.08
2023-06-07T03:20:10.622Z,11.16
2023-06-07T03:22:37.765Z,11.21
2023-06-07T03:25:05.281Z,11.29
2023-06-07T03:27:34.121Z,11.34
2023-06-07T03:30:01.372Z,11.43
2023-06-07T03:32:31.084Z,11.52
2023-06-07T03:34:58.029Z,11.61
2023-06-07T03:37:24.996Z,11.71
2023-06-07T03:39:51.863Z,11.81
2023-06-07T03:42:18.784Z,11.91
2023-06-07T03:44:46.275Z,12.00
2023-06-07T03:47:13.128Z,12.09
2023-06-07T03:49:40.082Z,12.19
2023-06-07T03:52:07.890Z,12.29
2023-06-07T03:54:35.145Z,12.34
2023-06-07T03:57:02.086Z,12.46
2023-06-07T03:59:29.070Z,12.58
2023-06-07T04:01:58.379Z,12.68
2023-06-07T04:04:29.035Z,12.77
2023-06-07T04:06:56.536Z,12.87
2023-06-07T04:09:23.492Z,13.00
2023-06-07T04:11:50.959Z,13.11
2023-06-07T04:14:17.937Z,13.24
2023-06-07T04:16:44.958Z,13.40
2023-06-07T04:19:11.979Z,13.57
2023-06-07T04:21:39.851Z,13.76
2023-06-07T04:24:07.437Z,13.90
2023-06-07T04:26:35.031Z,14.04
2023-06-07T04:29:02.153Z,14.15
2023-06-07T04:31:30.908Z,14.27
2023-06-07T04:34:02.902Z,14.40
2023-06-07T04:36:30.043Z,14.50
2023-06-07T04:38:58.753Z,14.61
2023-06-07T04:41:34.289Z,14.72
2023-06-07T04:44:04.829Z,14.80
2023-06-07T04:46:34.863Z,14.92
2023-06-07T04:49:01.905Z,15.01
2023-06-07T04:51:31.198Z,15.10
2023-06-07T04:54:02.654Z,15.22
2023-06-07T04:56:30.192Z,15.36
2023-06-07T04:58:57.810Z,15.43
2023-06-07T05:01:25.782Z,15.52
2023-06-07T05:04:00.742Z,15.62
2023-06-07T05:06:29.975Z,15.71
2023-06-07T05:08:57.203Z,15.75
2023-06-07T05:11:24.513Z,15.84
2023-06-07T05:13:51.433Z,15.93
2023-06-07T05:16:18.834Z,16.02
2023-06-07T05:18:50.003Z,16.12
2023-06-07T05:21:17.526Z,16.28
2023-06-07T05:23:45.210Z,16.40
2023-06-07T05:26:12.316Z,16.48
2023-06-07T05:28:39.352Z,16.56
2023-06-07T05:31:07.015Z,16.63
2023-06-07T05:33:34.719Z,16.68
2023-06-07T05:36:01.991Z,16.75
2023-06-07T05:38:29.119Z,16.85
2023-06-07T05:40:56.930Z,16.95
2023-06-07T05:43:24.101Z,17.02
2023-06-07T05:45:51.019Z,17.13
2023-06-07T05:48:17.989Z,17.21
2023-06-07T05:50:45.002Z,17.31
2023-06-07T05:53:11.889Z,17.38
2023-06-07T05:55:38.849Z,17.46
2023-06-07T05:58:05.930Z,17.54
2023-06-07T06:00:35.950Z,17.58
2023-06-07T06:03:03.341Z,17.64
2023-06-07T06:05:30.612Z,17.77
2023-06-07T06:07:58.611Z,17.87
2023-06-07T06:10:26.794Z,17.94
2023-06-07T06:12:54.159Z,17.97
2023-06-07T06:15:21.362Z,18.01
2023-06-07T06:17:51.017Z,18.10
2023-06-07T06:20:18.137Z,18.23
2023-06-07T06:22:45.301Z,18.34
2023-06-07T06:25:13.570Z,18.40
2023-06-07T06:27:41.035Z,18.44
2023-06-07T06:30:09.958Z,18.57
2023-06-07T06:32:37.113Z,18.74
2023-06-07T06:35:04.622Z,18.81
2023-06-07T06:37:31.883Z,18.88
2023-06-07T06:39:58.763Z,18.95
2023-06-07T06:42:26.066Z,19.05
2023-06-07T06:44:53.017Z,19.16
2023-06-07T06:47:20.005Z,19.21
2023-06-07T06:49:46.939Z,19.24
2023-06-07T06:52:13.860Z,19.27
2023-06-07T06:54:40.851Z,19.29
2023-06-07T06:57:10.480Z,19.30
2023-06-07T06:59:37.630Z,19.38
2023-06-07T07:02:04.977Z,19.47
2023-06-07T07:04:33.177Z,19.50
2023-06-07T07:07:00.262Z,19.54
2023-06-07T07:09:27.165Z,19.63
2023-06-07T07:11:54.132Z,19.70
2023-06-07T07:14:21.019Z,19.75
2023-06-07T07:16:48.352Z,19.81
2023-06-07T07:19:15.380Z,19.89
2023-06-07T07:21:44.524Z,19.94
2023-06-07T07:24:11.736Z,20.06
2023-06-07T07:26:40.556Z,20.09
2023-06-07T07:29:07.567Z,19.99
2023-06-07T07:31:35.192Z,20.16
2023-06-07T07:34:05.861Z,20.34
2023-06-07T07:36:35.244Z,20.51
2023-06-07T07:39:06.520Z,20.69
2023-06-07T07:41:34.189Z,20.83
2023-06-07T07:44:01.674Z,20.94
2023-06-07T07:46:29.730Z,21.03
2023-06-07T07:48:57.056Z,21.07
2023-06-07T07:51:24.319Z,21.15
2023-06-07T07:53:54.810Z,21.35
2023-06-07T07:56:24.749Z,21.52
2023-06-07T07:58:52.071Z,21.51
2023-06-07T08:01:23.088Z,21.42
2023-06-07T08:03:50.232Z,21.53
2023-06-07T08:06:18.482Z,21.68
2023-06-07T08:08:48.490Z,21.73
2023-06-07T08:11:15.352Z,21.89
2023-06-07T08:13:42.623Z,21.97
2023-06-07T08:16:09.776Z,21.82
2023-06-07T08:18:36.877Z,21.88
2023-06-07T08:21:05.238Z,21.80
2023-06-07T08:23:32.307Z,21.57
2023-06-07T08:26:00.247Z,21.55
2023-06-07T08:28:27.335Z,21.30
2023-06-07T08:30:54.826Z,21.55
2023-06-07T08:33:21.722Z,22.09
2023-06-07T08:35:48.894Z,22.41
2023-06-07T08:38:15.791Z,22.54
2023-06-07T08:40:42.725Z,22.52
2023-06-07T08:43:09.801Z,22.62
2023-06-07T08:45:38.438Z,22.86
2023-06-07T08:48:07.929Z,23.03
2023-06-07T08:50:35.576Z,23.33
2023-06-07T08:53:13.984Z,23.69
2023-06-07T08:55:41.170Z,23.77
2023-06-07T08:58:11.980Z,23.95
2023-06-07T09:00:39.485Z,23.94
2023-06-07T09:05:34.129Z,23.11
2023-06-07T09:08:02.352Z,22.65
2023-06-07T09:10:29.258Z,22.70
2023-06-07T09:12:56.424Z,23.00
2023-06-07T09:15:23.396Z,23.22
2023-06-07T09:18:00.659Z,23.48
2023-06-07T09:20:32.891Z,23.56
2023-06-07T09:23:01.065Z,23.52
2023-06-07T09:25:29.331Z,23.48
2023-06-07T09:27:57.115Z,23.42
2023-06-07T09:30:24.819Z,23.07
2023-06-07T09:32:52.048Z,22.70
2023-06-07T09:35:22.767Z,22.42
2023-06-07T09:38:00.605Z,22.27
2023-06-07T09:40:27.712Z,21.99
2023-06-07T09:43:01.175Z,21.79
2023-06-07T09:45:29.126Z,21.55
2023-06-07T09:48:10.785Z,21.46
2023-06-07T09:50:37.886Z,21.37
2023-06-07T09:53:04.836Z,21.24
2023-06-07T09:55:31.949Z,21.22
2023-06-07T09:57:59.155Z,21.18
2023-06-07T10:00:27.325Z,21.10
2023-06-07T10:03:07.174Z,20.99
2023-06-07T10:05:34.436Z,20.96
2023-06-07T10:08:01.987Z,20.98
2023-06-07T10:10:29.831Z,21.11
2023-06-07T10:13:00.047Z,21.34
2023-06-07T10:15:27.217Z,21.66
2023-06-07T10:17:54.375Z,22.17
2023-06-07T10:20:35.136Z,22.30
2023-06-07T10:23:06.860Z,22.43
2023-06-07T10:25:45.047Z,22.60
2023-06-07T10:28:21.023Z,22.73
2023-06-07T10:30:54.822Z,22.95
2023-06-07T10:33:25.528Z,22.99
2023-06-07T10:35:53.676Z,22.96
2023-06-07T10:38:20.780Z,22.99
2023-06-07T10:40:48.394Z,23.15
2023-06-07T10:43:15.453Z,23.17
2023-06-07T10:45:42.769Z,22.94
2023-06-07T10:48:32.909Z,22.76
2023-06-07T10:51:00.357Z,22.83
2023-06-07T10:53:49.830Z,23.12
2023-06-07T10:56:37.016Z,23.26
2023-06-07T10:59:16.715Z,23.30
2023-06-07T11:01:48.202Z,23.30
2023-06-07T11:04:39.351Z,23.05
2023-06-07T11:07:20.350Z,23.05
2023-06-07T11:09:49.503Z,23.48
2023-06-07T11:12:46.366Z,23.68
2023-06-07T11:15:23.144Z,23.65
2023-06-07T11:17:57.981Z,23.20
2023-06-07T11:20:37.892Z,22.88
2023-06-07T11:23:28.732Z,23.30
2023-06-07T11:26:08.593Z,24.26
2023-06-07T11:28:39.151Z,25.80
2023-06-07T11:31:11.775Z,26.98
2023-06-07T11:33:41.761Z,28.24
2023-06-07T11:36:10.899Z,28.53
2023-06-07T11:38:39.633Z,29.29
2023-06-07T11:41:09.222Z,29.92
2023-06-07T11:43:37.185Z,31.06
2023-06-07T11:46:04.599Z,30.98
2023-06-07T11:48:32.167Z,30.59
2023-06-07T11:51:02.449Z,30.04
2023-06-07T11:53:30.777Z,28.87
2023-06-07T11:56:01.670Z,27.55
2023-06-07T11:58:29.440Z,27.58
2023-06-07T12:00:57.851Z,27.71
2023-06-07T12:03:28.041Z,27.73
2023-06-07T12:05:55.852Z,27.97
2023-06-07T12:08:31.368Z,28.06
2023-06-07T12:10:58.676Z,27.54
2023-06-07T12:13:25.708Z,26.43
2023-06-07T12:15:57.505Z,25.48
2023-06-07T12:18:35.561Z,24.80
2023-06-07T12:21:13.272Z,24.30
2023-06-07T12:23:49.228Z,23.88
2023-06-07T12:26:17.676Z,23.83
2023-06-07T12:28:45.237Z,23.61
2023-06-07T12:31:22.120Z,23.31
2023-06-07T12:34:12.407Z,23.14
2023-06-07T12:36:40.667Z,22.99
2023-06-07T12:39:12.974Z,22.83
2023-06-07T12:41:41.517Z,22.78
2023-06-07T12:44:11.328Z,22.73
2023-06-07T12:46:38.746Z,22.64
2023-06-07T12:49:06.042Z,22.57
2023-06-07T12:51:34.863Z,22.63
2023-06-07T12:54:02.318Z,22.66
2023-06-07T12:56:29.929Z,22.56
2023-06-07T12:58:56.869Z,22.35
2023-06-07T13:01:24.069Z,22.19
2023-06-07T13:03:51.405Z,22.20
2023-06-07T13:06:18.432Z,22.19
2023-06-07T13:08:45.443Z,22.34
2023-06-07T13:11:12.530Z,22.43
2023-06-07T13:13:39.764Z,22.52
2023-06-07T13:16:08.942Z,22.50
2023-06-07T13:18:40.249Z,22.46
2023-06-07T13:21:08.599Z,22.47
2023-06-07T13:23:35.846Z,22.54
2023-06-07T13:26:05.527Z,22.61
2023-06-07T13:28:33.188Z,22.73
2023-06-07T13:31:00.136Z,22.81
2023-06-07T13:33:27.129Z,22.83
2023-06-07T13:35:54.002Z,22.69
2023-06-07T13:38:21.018Z,22.58
2023-06-07T13:40:47.940Z,22.54
2023-06-07T13:43:15.111Z,22.56
2023-06-07T13:45:42.741Z,22.62
2023-06-07T13:48:12.165Z,22.57
2023-06-07T13:50:44.037Z,22.47
2023-06-07T13:53:11.054Z,22.37
2023-06-07T13:55:38.322Z,22.44
2023-06-07T13:58:05.456Z,22.41
2023-06-07T14:00:32.396Z,22.34
2023-06-07T14:02:59.677Z,22.23
2023-06-07T14:05:28.174Z,22.13
2023-06-07T14:07:55.135Z,22.08
2023-06-07T14:10:22.082Z,22.02
2023-06-07T14:12:49.293Z,21.89
2023-06-07T14:15:16.159Z,21.72
2023-06-07T14:17:43.212Z,21.65
2023-06-07T14:20:10.709Z,21.56
2023-06-07T14:22:37.686Z,21.55
2023-06-07T14:25:05.256Z,21.52
2023-06-07T14:27:32.571Z,21.43
2023-06-07T14:29:59.532Z,21.39
2023-06-07T14:32:26.937Z,21.31
2023-06-07T14:34:54.066Z,21.18
2023-06-07T14:37:21.095Z,21.10
2023-06-07T14:39:48.078Z,20.99
2023-06-07T14:42:16.970Z,20.93
2023-06-07T14:44:45.255Z,20.86
2023-06-07T14:47:12.135Z,20.78
2023-06-07T14:49:39.035Z,20.74
2023-06-07T14:52:08.708Z,20.55
2023-06-07T14:54:35.766Z,20.09
2023-06-07T14:57:02.678Z,19.49
2023-06-07T14:59:29.628Z,18.88
2023-06-07T15:01:56.722Z,18.45
2023-06-07T15:04:23.648Z,18.18
2023-06-07T15:06:50.999Z,17.88
2023-06-07T15:09:17.894Z,17.65
2023-06-07T15:11:44.872Z,17.41
2023-06-07T15:14:11.809Z,17.30
2023-06-07T15:16:40.335Z,17.21
2023-06-07T15:19:07.373Z,17.06
2023-06-07T15:21:34.288Z,16.97
2023-06-07T15:24:01.197Z,16.89
2023-06-07T15:26:28.342Z,16.83
2023-06-07T15:28:58.053Z,16.76
2023-06-07T15:31:25.988Z,16.70
2023-06-07T15:33:53.950Z,16.57
2023-06-07T15:36:21.185Z,16.42
2023-06-07T15:38:49.508Z,16.32
2023-06-07T15:41:16.477Z,16.25
2023-06-07T15:43:47.354Z,16.12
2023-06-07T15:46:14.568Z,15.97
2023-06-07T15:48:41.687Z,15.88
2023-06-07T15:51:08.577Z,15.82
2023-06-07T15:53:35.468Z,15.77
2023-06-07T15:56:02.443Z,15.76
2023-06-07T15:58:29.329Z,15.77
2023-06-07T16:00:56.307Z,15.75
2023-06-07T16:03:23.380Z,15.76
2023-06-07T16:05:50.557Z,15.77
2023-06-07T16:08:17.514Z,15.77
2023-06-07T16:10:44.638Z,15.77
2023-06-07T16:13:11.791Z,15.73
2023-06-07T16:15:38.719Z,15.65
2023-06-07T16:18:06.606Z,15.58
2023-06-07T16:20:33.764Z,15.54
2023-06-07T16:23:01.733Z,15.57
2023-06-07T16:25:28.879Z,15.61
2023-06-07T16:27:56.006Z,15.67
2023-06-07T16:30:23.014Z,15.73
2023-06-07T16:32:50.021Z,15.76
2023-06-07T16:35:16.944Z,15.79
2023-06-07T16:37:43.816Z,15.84
2023-06-07T16:40:10.989Z,15.85
2023-06-07T16:42:40.711Z,15.85
2023-06-07T16:45:11.710Z,15.82
2023-06-07T16:47:38.796Z,15.80
2023-06-07T16:50:06.587Z,15.80
2023-06-07T16:52:34.209Z,15.79
2023-06-07T16:55:01.550Z,15.75
2023-06-07T16:57:31.603Z,15.74
2023-06-07T16:59:59.544Z,15.74
2023-06-07T17:02:26.568Z,15.71
2023-06-07T17:04:53.626Z,15.65
2023-06-07T17:07:20.615Z,15.60
2023-06-07T17:09:47.548Z,15.53
2023-06-07T17:12:16.556Z,15.50
2023-06-07T17:14:46.812Z,15.51
2023-06-07T17:17:15.315Z,15.51
2023-06-07T17:19:43.628Z,15.54
2023-06-07T17:22:10.862Z,15.56
2023-06-07T17:24:37.951Z,15.57
2023-06-07T17:27:08.517Z,15.56
2023-06-07T17:29:36.450Z,15.52
2023-06-07T17:32:03.664Z,15.47
2023-06-07T17:34:30.743Z,15.49
2023-06-07T17:36:57.725Z,15.51
2023-06-07T17:39:24.784Z,15.53
2023-06-07T17:41:51.740Z,15.54
2023-06-07T17:44:18.915Z,15.54
2023-06-07T17:46:47.310Z,15.54
2023-06-07T17:49:17.290Z,15.44
2023-06-07T17:51:44.119Z,15.45
2023-06-07T17:54:11.195Z,15.46
2023-06-07T17:56:38.208Z,15.48
2023-06-07T17:59:05.135Z,15.47
2023-06-07T18:01:32.228Z,15.47
2023-06-07T18:03:59.624Z,15.42
2023-06-07T18:06:26.657Z,15.37
2023-06-07T18:08:53.824Z,15.30
2023-06-07T18:11:20.778Z,15.26
2023-06-07T18:13:47.689Z,15.23
2023-06-07T18:16:15.435Z,15.14
2023-06-07T18:18:42.369Z,15.06
2023-06-07T18:21:11.202Z,14.99
2023-06-07T18:23:38.700Z,14.95
2023-06-07T18:26:07.677Z,14.93
2023-06-07T18:28:34.980Z,14.90
2023-06-07T18:31:02.167Z,14.87
2023-06-07T18:33:32.354Z,14.83
2023-06-07T18:35:59.429Z,14.81
2023-06-07T18:38:26.594Z,14.75
2023-06-07T18:40:53.922Z,14.71
2023-06-07T18:43:21.427Z,14.70
2023-06-07T18:45:49.215Z,14.69
2023-06-07T18:48:18.161Z,14.66
2023-06-07T18:50:45.672Z,14.62
2023-06-07T18:53:12.935Z,14.60
2023-06-07T18:55:39.969Z,14.58
2023-06-07T18:58:08.723Z,14.55
2023-06-07T19:00:35.605Z,14.40
2023-06-07T19:03:02.654Z,14.41
2023-06-07T19:05:29.665Z,14.40
2023-06-07T19:07:56.625Z,14.36
2023-06-07T19:10:23.584Z,14.33
2023-06-07T19:12:50.505Z,14.31
2023-06-07T19:15:17.546Z,14.27
2023-06-07T19:17:44.487Z,14.25
2023-06-07T19:20:12.429Z,14.23
2023-06-07T19:22:39.401Z,14.15
2023-06-07T19:25:07.119Z,14.12
2023-06-07T19:27:34.406Z,14.12
2023-06-07T19:30:01.413Z,14.09
2023-06-07T19:32:31.641Z,14.08
2023-06-07T19:34:58.929Z,14.05
2023-06-07T19:37:25.856Z,14.01
2023-06-07T19:39:52.753Z,13.98
2023-06-07T19:42:21.300Z,13.97
2023-06-07T19:44:48.405Z,13.98
2023-06-07T19:47:15.292Z,13.99
2023-06-07T19:49:42.174Z,13.98
2023-06-07T19:52:09.304Z,13.97
2023-06-07T19:54:37.188Z,13.95
2023-06-07T19:57:06.835Z,13.92
2023-06-07T19:59:34.974Z,13.89
2023-06-07T20:02:05.347Z,13.85
2023-06-07T20:04:33.560Z,13.84
2023-06-07T20:07:07.640Z,13.81
2023-06-07T20:09:36.252Z,13.78
2023-06-07T20:12:04.562Z,13.75
2023-06-07T20:14:31.654Z,13.72
2023-06-07T20:16:58.707Z,13.66
2023-06-07T20:19:26.302Z,13.63
2023-06-07T20:21:55.339Z,13.61
2023-06-07T20:24:22.221Z,13.58
2023-06-07T20:26:49.120Z,13.54
2023-06-07T20:29:16.515Z,13.50
2023-06-07T20:31:48.390Z,13.47
2023-06-07T20:34:18.304Z,13.42
2023-06-07T20:36:45.294Z,13.39
2023-06-07T20:39:12.428Z,13.37
2023-06-07T20:41:39.363Z,13.34
2023-06-07T20:44:08.471Z,13.32
2023-06-07T20:46:36.574Z,13.29
2023-06-07T20:49:09.099Z,13.23
2023-06-07T20:51:38.419Z,13.16
2023-06-07T20:54:06.315Z,13.13
2023-06-07T20:56:33.262Z,13.09
2023-06-07T20:59:00.190Z,13.10
2023-06-07T21:01:27.276Z,13.12
2023-06-07T21:03:55.511Z,13.14
2023-06-07T21:06:22.584Z,13.12
2023-06-07T21:08:49.638Z,13.12
2023-06-07T21:11:16.952Z,13.13
2023-06-07T21:13:44.201Z,13.15
2023-06-07T21:16:11.120Z,13.12
2023-06-07T21:18:38.054Z,13.12
2023-06-07T21:21:05.031Z,13.14
2023-06-07T21:23:31.968Z,13.09
2023-06-07T21:25:58.969Z,13.08
2023-06-07T21:28:25.995Z,13.06
2023-06-07T21:30:52.868Z,13.02
2023-06-07T21:33:20.561Z,13.00
2023-06-07T21:35:47.731Z,12.97
2023-06-07T21:38:14.729Z,12.93
2023-06-07T21:40:41.693Z,12.91
2023-06-07T21:43:08.723Z,12.89
2023-06-07T21:45:35.780Z,12.90
2023-06-07T21:48:02.737Z,12.88
2023-06-07T21:50:29.955Z,12.85
2023-06-07T21:52:56.939Z,12.82
2023-06-07T21:55:24.153Z,12.78
2023-06-07T21:57:51.303Z,12.77
2023-06-07T22:00:18.729Z,12.75
2023-06-07T22:02:45.708Z,12.72
2023-06-07T22:05:12.608Z,12.70
2023-06-07T22:07:40.080Z,12.68
2023-06-07T22:10:07.691Z,12.64
2023-06-07T22:12:38.077Z,12.62
2023-06-07T22:15:06.045Z,12.60
2023-06-07T22:17:34.969Z,12.55
2023-06-07T22:20:06.332Z,12.53
2023-06-07T22:22:37.117Z,12.49
2023-06-07T22:25:04.777Z,12.46
2023-06-07T22:27:32.149Z,12.42
2023-06-07T22:29:59.817Z,12.42
2023-06-07T22:32:30.142Z,12.40
2023-06-07T22:35:05.079Z,12.38
2023-06-07T22:37:34.703Z,12.36
2023-06-07T22:40:05.763Z,12.35
2023-06-07T22:42:34.826Z,12.31
2023-06-07T22:45:02.953Z,12.30
2023-06-07T22:47:35.942Z,12.27
2023-06-07T22:50:03.631Z,12.15
2023-06-07T22:52:36.027Z,12.06
2023-06-07T22:55:03.759Z,12.01
2023-06-07T22:57:32.103Z,11.97
2023-06-07T22:59:58.843Z,11.96
2023-06-07T23:02:27.206Z,11.95
2023-06-07T23:04:53.990Z,11.91
2023-06-07T23:07:20.818Z,11.88
2023-06-07T23:09:47.582Z,11.87
2023-06-07T23:12:14.321Z,11.83
2023-06-07T23:14:41.069Z,11.80
2023-06-07T23:17:07.760Z,11.74
2023-06-07T23:19:34.464Z,11.71
2023-06-07T23:22:01.219Z,11.70
2023-06-07T23:24:28.608Z,11.67
2023-06-07T23:26:59.541Z,11.65
2023-06-07T23:29:26.899Z,11.62
2023-06-07T23:31:55.113Z,11.60
2023-06-07T23:34:25.094Z,11.54
2023-06-07T23:36:52.344Z,11.50
2023-06-07T23:39:19.062Z,11.48
2023-06-07T23:41:46.939Z,11.43
2023-06-07T23:44:27.432Z,11.38
2023-06-07T23:46:55.512Z,11.32
2023-06-07T23:49:26.129Z,11.30
2023-06-07T23:51:54.226Z,11.27
2023-06-07T23:54:22.763Z,11.23
2023-06-07T23:56:49.699Z,11.19
2023-06-07T23:59:16.414Z,11.15
